sensor_id;sensor_type;location;lat;lon;timestamp;temperature;humidity
21648;DHT22;10985;54.182;7.890;2024-03-02T12:45:15;27.20;99.90
21648;DHT22;10985;54.182;7.890;2024-03-02T12:47:41;27.20;99.90
21648;DHT22;10985;54.182;7.890;2024-03-02T12:50:09;27.40;99.90
21648;DHT22;10985;54.182;7.890;2024-03-02T12:52:34;27.50;99.90
21648;DHT22;10985;54.182;7.890;2024-03-02T12:55:01;27.70;99.90
21648;DHT22;10985;54.182;7.890;2024-03-02T12:57:29;27.80;99.90
21648;DHT22;10985;54.182;7.890;2024-03-02T13:00:05;27.90;99.90
21648;DHT22;10985;54.182;7.890;2024-03-02T13:02:40;28.00;99.90
21648;DHT22;10985;54.182;7.890;2024-03-02T13:05:07;28.10;99.90
21648;DHT22;10985;54.182;7.890;2024-03-02T13:07:37;28.20;99.90
21648;DHT22;10985;54.182;7.890;2024-03-02T13:10:03;28.10;99.90
21648;DHT22;10985;54.182;7.890;2024-03-02T13:12:30;28.30;99.90
21648;DHT22;10985;54.182;7.890;2024-03-02T13:14:57;28.20;99.90
21648;DHT22;10985;54.182;7.890;2024-03-02T13:17:23;28.20;99.90
21648;DHT22;10985;54.182;7.890;2024-03-02T13:19:52;28.20;99.90
21648;DHT22;10985;54.182;7.890;2024-03-02T13:22:18;28.10;99.90
21648;DHT22;10985;54.182;7.890;2024-03-02T13:24:44;28.00;99.90
21648;DHT22;10985;54.182;7.890;2024-03-02T13:27:09;27.80;99.90
21648;DHT22;10985;54.182;7.890;2024-03-02T13:29:35;27.70;99.90
21648;DHT22;10985;54.182;7.890;2024-03-02T13:32:00;27.40;99.90
21648;DHT22;10985;54.182;7.890;2024-03-02T13:34:26;27.30;99.90
21648;DHT22;10985;54.182;7.890;2024-03-02T13:36:51;27.20;99.90
21648;DHT22;10985;54.182;7.890;2024-03-02T13:39:17;27.20;99.90
21648;DHT22;10985;54.182;7.890;2024-03-02T13:41:43;27.10;99.90
21648;DHT22;10985;54.182;7.890;2024-03-02T13:44:17;27.10;99.90
21648;DHT22;10985;54.182;7.890;2024-03-02T13:46:42;27.00;99.90
21648;DHT22;10985;54.182;7.890;2024-03-02T13:49:11;27.00;99.90
21648;DHT22;10985;54.182;7.890;2024-03-02T13:51:36;26.90;99.90
21648;DHT22;10985;54.182;7.890;2024-03-02T13:54:02;26.80;99.90
21648;DHT22;10985;54.182;7.890;2024-03-02T13:56:29;26.70;99.90
21648;DHT22;10985;54.182;7.890;2024-03-02T13:58:54;26.50;99.90
21648;DHT22;10985;54.182;7.890;2024-03-02T14:01:20;26.20;99.90
21648;DHT22;10985;54.182;7.890;2024-03-02T14:03:45;26.00;99.90
21648;DHT22;10985;54.182;7.890;2024-03-02T14:06:12;25.70;99.90
21648;DHT22;10985;54.182;7.890;2024-03-02T14:08:37;25.40;99.90
21648;DHT22;10985;54.182;7.890;2024-03-02T14:11:03;25.00;99.90
21648;DHT22;10985;54.182;7.890;2024-03-02T14:13:28;24.40;99.90
21648;DHT22;10985;54.182;7.890;2024-03-02T14:15:54;23.80;99.90
21648;DHT22;10985;54.182;7.890;2024-03-02T14:18:20;23.10;99.90
21648;DHT22;10985;54.182;7.890;2024-03-02T14:20:46;22.50;99.90
21648;DHT22;10985;54.182;7.890;2024-03-02T14:23:17;22.00;99.90
21648;DHT22;10985;54.182;7.890;2024-03-02T14:25:43;21.30;99.90
21648;DHT22;10985;54.182;7.890;2024-03-02T14:28:08;20.80;99.90
21648;DHT22;10985;54.182;7.890;2024-03-02T14:30:34;20.30;99.90
21648;DHT22;10985;54.182;7.890;2024-03-02T14:32:59;19.70;99.90
21648;DHT22;10985;54.182;7.890;2024-03-02T14:35:25;19.20;99.90
21648;DHT22;10985;54.182;7.890;2024-03-02T14:37:51;18.70;99.90
21648;DHT22;10985;54.182;7.890;2024-03-02T14:40:17;18.20;99.90
21648;DHT22;10985;54.182;7.890;2024-03-02T14:42:42;17.90;99.90
21648;DHT22;10985;54.182;7.890;2024-03-02T14:45:12;17.50;99.90
21648;DHT22;10985;54.182;7.890;2024-03-02T14:47:38;17.10;99.90
21648;DHT22;10985;54.182;7.890;2024-03-02T14:50:03;16.80;99.90
21648;DHT22;10985;54.182;7.890;2024-03-02T14:52:32;16.50;99.90
21648;DHT22;10985;54.182;7.890;2024-03-02T14:54:57;16.20;99.90
21648;DHT22;10985;54.182;7.890;2024-03-02T14:57:23;16.00;99.90
21648;DHT22;10985;54.182;7.890;2024-03-02T14:59:49;15.80;99.90
21648;DHT22;10985;54.182;7.890;2024-03-02T15:02:14;15.50;99.90
21648;DHT22;10985;54.182;7.890;2024-03-02T15:04:40;15.30;99.90
21648;DHT22;10985;54.182;7.890;2024-03-02T15:07:05;15.10;99.90
21648;DHT22;10985;54.182;7.890;2024-03-02T15:09:31;14.90;99.90
21648;DHT22;10985;54.182;7.890;2024-03-02T15:11:56;14.70;99.90
21648;DHT22;10985;54.182;7.890;2024-03-02T15:14:22;14.50;99.90
21648;DHT22;10985;54.182;7.890;2024-03-02T15:16:47;14.30;99.90
21648;DHT22;10985;54.182;7.890;2024-03-02T15:19:14;14.20;99.90
21648;DHT22;10985;54.182;7.890;2024-03-02T15:21:39;14.00;99.90
21648;DHT22;10985;54.182;7.890;2024-03-02T15:24:05;13.90;99.90
21648;DHT22;10985;54.182;7.890;2024-03-02T15:26:31;13.70;99.90
21648;DHT22;10985;54.182;7.890;2024-03-02T15:28:56;13.60;99.90
21648;DHT22;10985;54.182;7.890;2024-03-02T15:31:24;13.50;99.90
21648;DHT22;10985;54.182;7.890;2024-03-02T15:33:50;13.40;99.90
21648;DHT22;10985;54.182;7.890;2024-03-02T15:36:16;13.30;99.90
21648;DHT22;10985;54.182;7.890;2024-03-02T15:38:42;13.20;99.90
21648;DHT22;10985;54.182;7.890;2024-03-02T15:43:35;13.00;99.90
21648;DHT22;10985;54.182;7.890;2024-03-02T15:46:04;13.00;99.90
21648;DHT22;10985;54.182;7.890;2024-03-02T15:48:30;12.90;99.90
21648;DHT22;10985;54.182;7.890;2024-03-02T15:50:55;12.80;99.90
21648;DHT22;10985;54.182;7.890;2024-03-02T15:53:21;12.70;99.90
21648;DHT22;10985;54.182;7.890;2024-03-02T15:55:47;12.60;99.90
21648;DHT22;10985;54.182;7.890;2024-03-02T15:58:12;12.60;99.90
21648;DHT22;10985;54.182;7.890;2024-03-02T16:00:38;12.50;99.90
21648;DHT22;10985;54.182;7.890;2024-03-02T16:03:04;12.40;99.90
21648;DHT22;10985;54.182;7.890;2024-03-02T16:05:30;12.40;99.90
21648;DHT22;10985;54.182;7.890;2024-03-02T16:07:55;12.30;99.90
21648;DHT22;10985;54.182;7.890;2024-03-02T16:10:21;12.20;99.90
21648;DHT22;10985;54.182;7.890;2024-03-02T16:12:47;12.20;99.90
21648;DHT22;10985;54.182;7.890;2024-03-02T16:15:12;12.10;99.90
21648;DHT22;10985;54.182;7.890;2024-03-02T16:17:38;12.00;99.90
21648;DHT22;10985;54.182;7.890;2024-03-02T16:20:04;12.00;99.90
21648;DHT22;10985;54.182;7.890;2024-03-02T16:22:32;11.90;99.90
21648;DHT22;10985;54.182;7.890;2024-03-02T16:24:57;11.80;99.90
21648;DHT22;10985;54.182;7.890;2024-03-02T16:27:23;11.80;99.90
21648;DHT22;10985;54.182;7.890;2024-03-02T16:29:50;11.70;99.90
21648;DHT22;10985;54.182;7.890;2024-03-02T16:32:15;11.70;99.90
21648;DHT22;10985;54.182;7.890;2024-03-02T16:34:41;11.60;99.90
21648;DHT22;10985;54.182;7.890;2024-03-02T16:37:06;11.50;99.90
21648;DHT22;10985;54.182;7.890;2024-03-02T16:39:32;11.40;99.90
21648;DHT22;10985;54.182;7.890;2024-03-02T16:41:57;11.50;99.90
21648;DHT22;10985;54.182;7.890;2024-03-02T16:44:23;11.40;99.90
21648;DHT22;10985;54.182;7.890;2024-03-02T16:46:49;11.40;99.90
21648;DHT22;10985;54.182;7.890;2024-03-02T16:49:14;11.30;99.90
21648;DHT22;10985;54.182;7.890;2024-03-02T16:51:40;11.30;99.90
21648;DHT22;10985;54.182;7.890;2024-03-02T16:54:06;11.20;99.90
21648;DHT22;10985;54.182;7.890;2024-03-02T16:56:43;11.20;99.90
21648;DHT22;10985;54.182;7.890;2024-03-02T16:59:09;11.20;99.90
21648;DHT22;10985;54.182;7.890;2024-03-02T17:01:35;11.10;99.90
21648;DHT22;10985;54.182;7.890;2024-03-02T17:04:01;11.10;99.90
21648;DHT22;10985;54.182;7.890;2024-03-02T17:06:27;11.10;99.90
21648;DHT22;10985;54.182;7.890;2024-03-02T17:08:52;11.00;99.90
21648;DHT22;10985;54.182;7.890;2024-03-02T17:11:18;11.00;99.90
21648;DHT22;10985;54.182;7.890;2024-03-02T17:13:43;11.00;99.90
21648;DHT22;10985;54.182;7.890;2024-03-02T17:16:11;11.00;99.90
21648;DHT22;10985;54.182;7.890;2024-03-02T17:18:36;10.90;99.90
21648;DHT22;10985;54.182;7.890;2024-03-02T17:21:02;10.90;99.90
21648;DHT22;10985;54.182;7.890;2024-03-02T17:23:28;10.90;99.90
21648;DHT22;10985;54.182;7.890;2024-03-02T17:25:56;10.80;99.90
21648;DHT22;10985;54.182;7.890;2024-03-02T17:28:23;10.70;99.90
21648;DHT22;10985;54.182;7.890;2024-03-02T17:30:50;10.80;99.90
21648;DHT22;10985;54.182;7.890;2024-03-02T17:33:16;10.70;99.90
21648;DHT22;10985;54.182;7.890;2024-03-02T17:35:41;10.70;99.90
21648;DHT22;10985;54.182;7.890;2024-03-02T17:38:10;10.70;99.90
21648;DHT22;10985;54.182;7.890;2024-03-02T17:40:35;10.70;99.90
21648;DHT22;10985;54.182;7.890;2024-03-02T17:43:01;10.60;99.90
21648;DHT22;10985;54.182;7.890;2024-03-02T17:45:26;10.60;99.90
21648;DHT22;10985;54.182;7.890;2024-03-02T17:47:52;10.60;99.90
21648;DHT22;10985;54.182;7.890;2024-03-02T17:50:17;10.60;99.90
21648;DHT22;10985;54.182;7.890;2024-03-02T17:52:42;10.50;99.90
21648;DHT22;10985;54.182;7.890;2024-03-02T17:55:08;10.50;99.90
21648;DHT22;10985;54.182;7.890;2024-03-02T17:57:34;10.50;99.90
21648;DHT22;10985;54.182;7.890;2024-03-02T17:59:59;10.50;99.90
21648;DHT22;10985;54.182;7.890;2024-03-02T18:02:25;10.50;99.90
21648;DHT22;10985;54.182;7.890;2024-03-02T18:04:51;10.40;99.90
21648;DHT22;10985;54.182;7.890;2024-03-02T18:07:17;10.40;99.90
21648;DHT22;10985;54.182;7.890;2024-03-02T18:09:42;10.40;99.90
21648;DHT22;10985;54.182;7.890;2024-03-02T18:12:08;10.40;99.90
21648;DHT22;10985;54.182;7.890;2024-03-02T18:14:33;10.40;99.90
21648;DHT22;10985;54.182;7.890;2024-03-02T18:16:59;10.40;99.90
21648;DHT22;10985;54.182;7.890;2024-03-02T18:19:24;10.30;99.90
21648;DHT22;10985;54.182;7.890;2024-03-02T18:21:50;10.30;99.90
21648;DHT22;10985;54.182;7.890;2024-03-02T18:24:15;10.30;99.90
21648;DHT22;10985;54.182;7.890;2024-03-02T18:26:42;10.30;99.90
21648;DHT22;10985;54.182;7.890;2024-03-02T18:29:08;10.30;99.90
21648;DHT22;10985;54.182;7.890;2024-03-02T18:31:34;10.20;99.90
21648;DHT22;10985;54.182;7.890;2024-03-02T18:34:00;10.30;99.90
21648;DHT22;10985;54.182;7.890;2024-03-02T18:36:25;10.30;99.90
21648;DHT22;10985;54.182;7.890;2024-03-02T18:38:51;10.20;99.90
21648;DHT22;10985;54.182;7.890;2024-03-02T18:41:16;10.20;99.90
21648;DHT22;10985;54.182;7.890;2024-03-02T18:43:43;10.20;99.90
21648;DHT22;10985;54.182;7.890;2024-03-02T18:46:10;10.20;99.90
21648;DHT22;10985;54.182;7.890;2024-03-02T18:48:36;10.20;99.90
21648;DHT22;10985;54.182;7.890;2024-03-02T18:51:08;10.10;99.90
21648;DHT22;10985;54.182;7.890;2024-03-02T18:53:35;10.10;99.90
21648;DHT22;10985;54.182;7.890;2024-03-02T18:56:01;10.10;99.90
21648;DHT22;10985;54.182;7.890;2024-03-02T18:58:26;10.10;99.90
21648;DHT22;10985;54.182;7.890;2024-03-02T19:00:52;10.10;99.90
21648;DHT22;10985;54.182;7.890;2024-03-02T19:03:18;10.00;99.90
21648;DHT22;10985;54.182;7.890;2024-03-02T19:05:43;10.00;99.90
21648;DHT22;10985;54.182;7.890;2024-03-02T19:08:09;10.00;99.90
21648;DHT22;10985;54.182;7.890;2024-03-02T19:10:38;10.00;99.90
21648;DHT22;10985;54.182;7.890;2024-03-02T19:13:04;10.00;99.90
21648;DHT22;10985;54.182;7.890;2024-03-02T19:15:31;10.00;99.90
21648;DHT22;10985;54.182;7.890;2024-03-02T19:17:56;10.00;99.90
21648;DHT22;10985;54.182;7.890;2024-03-02T19:20:22;10.00;99.90
21648;DHT22;10985;54.182;7.890;2024-03-02T19:22:48;10.00;99.90
21648;DHT22;10985;54.182;7.890;2024-03-02T19:25:14;10.00;99.90
21648;DHT22;10985;54.182;7.890;2024-03-02T19:27:43;9.90;99.90
21648;DHT22;10985;54.182;7.890;2024-03-02T19:30:09;9.90;99.90
21648;DHT22;10985;54.182;7.890;2024-03-02T19:32:35;9.90;99.90
21648;DHT22;10985;54.182;7.890;2024-03-02T19:35:00;9.90;99.90
21648;DHT22;10985;54.182;7.890;2024-03-02T19:37:26;9.90;99.90
21648;DHT22;10985;54.182;7.890;2024-03-02T19:39:51;9.90;99.90
21648;DHT22;10985;54.182;7.890;2024-03-02T19:42:17;9.80;99.90
21648;DHT22;10985;54.182;7.890;2024-03-02T19:44:42;9.80;99.90
21648;DHT22;10985;54.182;7.890;2024-03-02T19:47:11;9.90;99.90
21648;DHT22;10985;54.182;7.890;2024-03-02T19:49:37;9.80;99.90
21648;DHT22;10985;54.182;7.890;2024-03-02T19:52:03;9.80;99.90
21648;DHT22;10985;54.182;7.890;2024-03-02T19:54:28;9.80;99.90
21648;DHT22;10985;54.182;7.890;2024-03-02T19:56:54;9.80;99.90
21648;DHT22;10985;54.182;7.890;2024-03-02T19:59:21;9.70;99.90
21648;DHT22;10985;54.182;7.890;2024-03-02T20:01:46;9.70;99.90
21648;DHT22;10985;54.182;7.890;2024-03-02T20:04:12;9.80;99.90
21648;DHT22;10985;54.182;7.890;2024-03-02T20:06:37;9.70;99.90
21648;DHT22;10985;54.182;7.890;2024-03-02T20:09:04;9.70;99.90
21648;DHT22;10985;54.182;7.890;2024-03-02T20:11:32;9.60;99.90
21648;DHT22;10985;54.182;7.890;2024-03-02T20:13:59;9.70;99.90
21648;DHT22;10985;54.182;7.890;2024-03-02T20:16:24;9.70;99.90
21648;DHT22;10985;54.182;7.890;2024-03-02T20:18:50;9.70;99.90
21648;DHT22;10985;54.182;7.890;2024-03-02T20:21:16;9.70;99.90
21648;DHT22;10985;54.182;7.890;2024-03-02T20:23:41;9.60;99.90
21648;DHT22;10985;54.182;7.890;2024-03-02T20:26:07;9.70;99.90
21648;DHT22;10985;54.182;7.890;2024-03-02T20:28:33;9.60;99.90
21648;DHT22;10985;54.182;7.890;2024-03-02T20:30:59;9.60;99.90
21648;DHT22;10985;54.182;7.890;2024-03-02T20:33:25;9.60;99.90
21648;DHT22;10985;54.182;7.890;2024-03-02T20:35:51;9.60;99.90
21648;DHT22;10985;54.182;7.890;2024-03-02T20:38:16;9.50;99.90
21648;DHT22;10985;54.182;7.890;2024-03-02T20:40:42;9.50;99.90
21648;DHT22;10985;54.182;7.890;2024-03-02T20:43:10;9.50;99.90
21648;DHT22;10985;54.182;7.890;2024-03-02T20:45:36;9.50;99.90
21648;DHT22;10985;54.182;7.890;2024-03-02T20:48:02;9.50;99.90
21648;DHT22;10985;54.182;7.890;2024-03-02T20:50:28;9.50;99.90
21648;DHT22;10985;54.182;7.890;2024-03-02T20:52:53;9.50;99.90
21648;DHT22;10985;54.182;7.890;2024-03-02T20:55:21;9.50;99.90
21648;DHT22;10985;54.182;7.890;2024-03-02T20:57:47;9.50;99.90
21648;DHT22;10985;54.182;7.890;2024-03-02T21:00:13;9.40;99.90
21648;DHT22;10985;54.182;7.890;2024-03-02T21:02:39;9.50;99.90
21648;DHT22;10985;54.182;7.890;2024-03-02T21:05:05;9.40;99.90
21648;DHT22;10985;54.182;7.890;2024-03-02T21:07:31;9.40;99.90
21648;DHT22;10985;54.182;7.890;2024-03-02T21:10:00;9.40;99.90
21648;DHT22;10985;54.182;7.890;2024-03-02T21:12:25;9.40;99.90
21648;DHT22;10985;54.182;7.890;2024-03-02T21:14:51;9.50;99.90
21648;DHT22;10985;54.182;7.890;2024-03-02T21:17:17;9.40;99.90
21648;DHT22;10985;54.182;7.890;2024-03-02T21:19:42;9.40;99.90
21648;DHT22;10985;54.182;7.890;2024-03-02T21:22:08;9.40;99.90
21648;DHT22;10985;54.182;7.890;2024-03-02T21:24:33;9.40;99.90
21648;DHT22;10985;54.182;7.890;2024-03-02T21:27:00;9.40;99.90
21648;DHT22;10985;54.182;7.890;2024-03-02T21:29:26;9.40;99.90
21648;DHT22;10985;54.182;7.890;2024-03-02T21:31:51;9.40;99.90
21648;DHT22;10985;54.182;7.890;2024-03-02T21:34:21;9.40;99.90
21648;DHT22;10985;54.182;7.890;2024-03-02T21:36:47;9.40;99.90
21648;DHT22;10985;54.182;7.890;2024-03-02T21:39:12;9.40;99.90
21648;DHT22;10985;54.182;7.890;2024-03-02T21:41:38;9.40;99.90
21648;DHT22;10985;54.182;7.890;2024-03-02T21:44:04;9.40;99.90
21648;DHT22;10985;54.182;7.890;2024-03-02T21:46:29;9.40;99.90
21648;DHT22;10985;54.182;7.890;2024-03-02T21:48:55;9.40;99.90
21648;DHT22;10985;54.182;7.890;2024-03-02T21:51:20;9.40;99.90
21648;DHT22;10985;54.182;7.890;2024-03-02T21:53:46;9.30;99.90
21648;DHT22;10985;54.182;7.890;2024-03-02T21:56:12;9.30;99.90
21648;DHT22;10985;54.182;7.890;2024-03-02T21:58:39;9.30;99.90
21648;DHT22;10985;54.182;7.890;2024-03-02T22:01:04;9.30;99.90
21648;DHT22;10985;54.182;7.890;2024-03-02T22:03:30;9.30;99.90
21648;DHT22;10985;54.182;7.890;2024-03-02T22:05:56;9.30;99.90
21648;DHT22;10985;54.182;7.890;2024-03-02T22:08:22;9.30;99.90
21648;DHT22;10985;54.182;7.890;2024-03-02T22:10:47;9.30;99.90
21648;DHT22;10985;54.182;7.890;2024-03-02T22:13:14;9.30;99.90
21648;DHT22;10985;54.182;7.890;2024-03-02T22:15:40;9.20;99.90
21648;DHT22;10985;54.182;7.890;2024-03-02T22:18:05;9.30;99.90
21648;DHT22;10985;54.182;7.890;2024-03-02T22:20:31;9.30;99.90
21648;DHT22;10985;54.182;7.890;2024-03-02T22:22:56;9.20;99.90
21648;DHT22;10985;54.182;7.890;2024-03-02T22:25:22;9.20;99.90
21648;DHT22;10985;54.182;7.890;2024-03-02T22:27:48;9.20;99.90
21648;DHT22;10985;54.182;7.890;2024-03-02T22:30:23;9.20;99.90
21648;DHT22;10985;54.182;7.890;2024-03-02T22:32:49;9.20;99.90
21648;DHT22;10985;54.182;7.890;2024-03-02T22:35:15;9.20;99.90
21648;DHT22;10985;54.182;7.890;2024-03-02T22:37:40;9.20;99.90
21648;DHT22;10985;54.182;7.890;2024-03-02T22:40:06;9.20;99.90
21648;DHT22;10985;54.182;7.890;2024-03-02T22:42:32;9.10;99.90
21648;DHT22;10985;54.182;7.890;2024-03-02T22:44:57;9.10;99.90
21648;DHT22;10985;54.182;7.890;2024-03-02T22:47:23;9.10;99.90
21648;DHT22;10985;54.182;7.890;2024-03-02T22:49:49;9.10;99.90
21648;DHT22;10985;54.182;7.890;2024-03-02T22:52:20;9.10;99.90
21648;DHT22;10985;54.182;7.890;2024-03-02T22:54:45;9.00;99.90
21648;DHT22;10985;54.182;7.890;2024-03-02T22:57:11;9.00;99.90
21648;DHT22;10985;54.182;7.890;2024-03-02T22:59:48;9.00;99.90
21648;DHT22;10985;54.182;7.890;2024-03-02T23:02:14;9.00;99.90
21648;DHT22;10985;54.182;7.890;2024-03-02T23:04:44;9.00;99.90
21648;DHT22;10985;54.182;7.890;2024-03-02T23:07:10;9.00;99.90
21648;DHT22;10985;54.182;7.890;2024-03-02T23:09:36;8.90;99.90
21648;DHT22;10985;54.182;7.890;2024-03-02T23:12:02;8.90;99.90
21648;DHT22;10985;54.182;7.890;2024-03-02T23:14:27;8.90;99.90
21648;DHT22;10985;54.182;7.890;2024-03-02T23:16:53;8.90;99.90
21648;DHT22;10985;54.182;7.890;2024-03-02T23:19:18;8.90;99.90
21648;DHT22;10985;54.182;7.890;2024-03-02T23:21:48;8.90;99.90
21648;DHT22;10985;54.182;7.890;2024-03-02T23:24:14;8.90;99.90
21648;DHT22;10985;54.182;7.890;2024-03-02T23:26:39;8.90;99.90
21648;DHT22;10985;54.182;7.890;2024-03-02T23:29:05;8.90;99.90
21648;DHT22;10985;54.182;7.890;2024-03-02T23:31:30;8.90;99.90
21648;DHT22;10985;54.182;7.890;2024-03-02T23:33:56;8.80;99.90
21648;DHT22;10985;54.182;7.890;2024-03-02T23:36:27;8.80;99.90
21648;DHT22;10985;54.182;7.890;2024-03-02T23:38:53;8.80;99.90
21648;DHT22;10985;54.182;7.890;2024-03-02T23:41:20;8.80;99.90
21648;DHT22;10985;54.182;7.890;2024-03-02T23:43:46;8.80;99.90
21648;DHT22;10985;54.182;7.890;2024-03-02T23:46:11;8.80;99.90
21648;DHT22;10985;54.182;7.890;2024-03-02T23:48:37;8.80;99.90
21648;DHT22;10985;54.182;7.890;2024-03-02T23:51:03;8.70;99.90
21648;DHT22;10985;54.182;7.890;2024-03-02T23:53:29;8.70;99.90
21648;DHT22;10985;54.182;7.890;2024-03-02T23:56:08;8.70;99.90
21648;DHT22;10985;54.182;7.890;2024-03-02T23:58:34;8.70;99.90
